createdAt,value
2019-02-25T00:00:54.658Z,5.70
2019-02-25T00:03:21.281Z,5.60
2019-02-25T00:05:47.570Z,5.60
2019-02-25T00:08:14.327Z,5.60
2019-02-25T00:10:40.609Z,5.60
2019-02-25T00:13:07.332Z,5.60
2019-02-25T00:15:34.039Z,5.60
2019-02-25T00:18:00.430Z,5.60
2019-02-25T00:20:26.852Z,5.60
2019-02-25T00:22:53.157Z,5.50
2019-02-25T00:25:19.790Z,5.50
2019-02-25T00:27:46.060Z,5.50
2019-02-25T00:30:14.263Z,5.40
2019-02-25T00:32:40.620Z,5.40
2019-02-25T00:35:07.445Z,5.40
2019-02-25T00:37:33.698Z,5.40
2019-02-25T00:40:05.281Z,5.40
2019-02-25T00:42:31.549Z,5.40
2019-02-25T00:44:57.810Z,5.40
2019-02-25T00:47:24.056Z,5.40
2019-02-25T00:49:54.548Z,5.40
2019-02-25T00:52:20.812Z,5.40
2019-02-25T00:54:47.052Z,5.40
2019-02-25T00:57:13.371Z,5.30
2019-02-25T00:59:39.656Z,5.30
2019-02-25T01:02:06.169Z,5.30
2019-02-25T01:04:32.544Z,5.30
2019-02-25T01:06:59.287Z,5.30
2019-02-25T01:09:28.934Z,5.30
2019-02-25T01:11:55.545Z,5.30
2019-02-25T01:14:21.940Z,5.40
2019-02-25T01:16:48.712Z,5.30
2019-02-25T01:19:15.102Z,5.30
2019-02-25T01:21:41.802Z,5.30
2019-02-25T01:24:08.529Z,5.20
2019-02-25T01:26:34.841Z,5.20
2019-02-25T01:29:01.091Z,5.20
2019-02-25T01:31:30.094Z,5.20
2019-02-25T01:33:56.399Z,5.20
2019-02-25T01:36:22.672Z,5.10
2019-02-25T01:38:50.198Z,5.10
2019-02-25T01:41:17.998Z,5.10
2019-02-25T01:43:44.294Z,5.10
2019-02-25T01:46:10.678Z,5.00
2019-02-25T01:48:37.003Z,5.00
2019-02-25T01:51:03.258Z,5.00
2019-02-25T01:53:29.927Z,5.00
2019-02-25T01:55:56.189Z,4.90
2019-02-25T01:58:22.467Z,4.90
2019-02-25T02:00:48.744Z,4.90
2019-02-25T02:03:15.029Z,4.90
2019-02-25T02:05:41.270Z,4.90
2019-02-25T02:08:16.340Z,4.80
2019-02-25T02:11:02.610Z,4.80
2019-02-25T02:13:28.976Z,4.80
2019-02-25T02:15:55.574Z,4.80
2019-02-25T02:18:21.874Z,4.80
2019-02-25T02:20:48.310Z,4.80
2019-02-25T02:23:14.626Z,4.80
2019-02-25T02:25:40.844Z,4.80
2019-02-25T02:28:07.233Z,4.80
2019-02-25T02:30:33.501Z,4.80
2019-02-25T02:32:59.739Z,4.80
2019-02-25T02:35:26.027Z,4.80
2019-02-25T02:37:52.291Z,4.80
2019-02-25T02:40:18.675Z,4.80
2019-02-25T02:42:54.747Z,4.80
2019-02-25T02:45:27.739Z,4.80
2019-02-25T02:47:59.605Z,4.80
2019-02-25T02:50:26.028Z,4.80
2019-02-25T02:52:52.751Z,4.70
2019-02-25T02:55:19.267Z,4.70
2019-02-25T02:57:45.528Z,4.70
2019-02-25T03:00:35.471Z,4.70
2019-02-25T03:03:01.844Z,4.70
2019-02-25T03:05:28.151Z,4.70
2019-02-25T03:07:54.402Z,4.60
2019-02-25T03:10:20.882Z,4.60
2019-02-25T03:12:47.653Z,4.60
2019-02-25T03:15:19.025Z,4.60
2019-02-25T03:17:45.393Z,4.60
2019-02-25T03:20:12.720Z,4.60
2019-02-25T03:22:39.130Z,4.60
2019-02-25T03:25:13.471Z,4.50
2019-02-25T03:27:59.634Z,4.60
2019-02-25T03:30:26.251Z,4.50
2019-02-25T03:32:52.711Z,4.50
2019-02-25T03:35:19.384Z,4.60
2019-02-25T03:37:45.636Z,4.50
2019-02-25T03:40:17.008Z,4.40
2019-02-25T03:42:49.627Z,4.40
2019-02-25T03:45:17.899Z,4.40
2019-02-25T03:47:44.288Z,4.30
2019-02-25T03:50:10.785Z,4.30
2019-02-25T03:52:37.229Z,4.30
2019-02-25T03:55:07.009Z,4.30
2019-02-25T03:57:36.096Z,4.20
2019-02-25T04:00:03.965Z,4.10
2019-02-25T04:02:30.418Z,4.20
2019-02-25T04:04:57.087Z,4.20
2019-02-25T04:07:23.582Z,4.20
2019-02-25T04:09:49.903Z,4.20
2019-02-25T04:12:16.467Z,4.10
2019-02-25T04:14:42.744Z,4.10
2019-02-25T04:17:10.242Z,4.10
2019-02-25T04:19:36.499Z,4.10
2019-02-25T04:22:03.331Z,4.10
2019-02-25T04:24:29.654Z,4.10
2019-02-25T04:26:56.104Z,4.10
2019-02-25T04:29:22.490Z,4.00
2019-02-25T04:31:48.949Z,4.00
2019-02-25T04:34:15.600Z,4.00
2019-02-25T04:36:42.120Z,4.00
2019-02-25T04:39:08.460Z,4.00
2019-02-25T04:41:34.911Z,4.00
2019-02-25T04:44:01.320Z,4.00
2019-02-25T04:46:27.679Z,4.00
2019-02-25T04:48:56.942Z,4.00
2019-02-25T04:51:24.947Z,3.90
2019-02-25T04:53:51.264Z,3.90
2019-02-25T04:56:17.565Z,3.90
2019-02-25T04:58:45.216Z,4.00
2019-02-25T05:01:11.403Z,4.00
2019-02-25T05:03:37.678Z,4.00
2019-02-25T05:06:05.445Z,4.00
2019-02-25T05:08:31.716Z,4.00
2019-02-25T05:10:58.129Z,4.00
2019-02-25T05:13:25.371Z,4.00
2019-02-25T05:15:51.695Z,4.10
2019-02-25T05:18:18.027Z,4.00
2019-02-25T05:20:51.830Z,4.00
2019-02-25T05:23:23.940Z,4.00
2019-02-25T05:25:50.233Z,4.10
2019-02-25T05:28:36.347Z,4.10
2019-02-25T05:31:02.654Z,4.10
2019-02-25T05:33:28.920Z,4.20
2019-02-25T05:35:55.246Z,4.20
2019-02-25T05:38:21.479Z,4.20
2019-02-25T05:40:47.747Z,4.20
2019-02-25T05:43:15.526Z,4.10
2019-02-25T05:45:43.105Z,4.10
2019-02-25T05:48:09.402Z,4.10
2019-02-25T05:50:35.647Z,4.20
2019-02-25T05:53:02.166Z,4.20
2019-02-25T05:55:28.423Z,4.20
2019-02-25T05:57:55.222Z,4.10
2019-02-25T06:00:24.583Z,4.10
2019-02-25T06:02:51.258Z,4.10
2019-02-25T06:05:17.686Z,4.10
2019-02-25T06:07:44.018Z,4.00
2019-02-25T06:10:11.507Z,4.00
2019-02-25T06:12:37.902Z,4.00
2019-02-25T06:15:10.108Z,4.00
2019-02-25T06:17:37.668Z,4.00
2019-02-25T06:20:06.961Z,4.00
2019-02-25T06:22:33.235Z,4.00
2019-02-25T06:25:00.030Z,4.00
2019-02-25T06:27:30.702Z,4.10
2019-02-25T06:29:54.533Z,4.00
2019-02-25T06:32:20.965Z,4.00
2019-02-25T06:34:47.483Z,4.00
2019-02-25T06:37:13.660Z,4.00
2019-02-25T06:39:40.060Z,4.00
2019-02-25T06:42:07.634Z,4.00
2019-02-25T06:44:34.349Z,4.00
2019-02-25T06:47:01.671Z,3.90
2019-02-25T06:49:27.992Z,3.90
2019-02-25T06:51:54.253Z,3.90
2019-02-25T06:54:20.896Z,3.90
2019-02-25T06:56:47.307Z,3.90
2019-02-25T06:59:13.587Z,3.90
2019-02-25T07:01:40.042Z,3.90
2019-02-25T07:04:11.335Z,3.90
2019-02-25T07:06:56.468Z,4.00
2019-02-25T07:09:38.910Z,4.00
2019-02-25T07:12:11.747Z,3.90
2019-02-25T07:14:47.509Z,4.00
2019-02-25T07:17:15.875Z,4.00
2019-02-25T07:19:47.252Z,4.10
2019-02-25T07:22:24.976Z,4.10
2019-02-25T07:24:53.225Z,4.10
2019-02-25T07:27:24.571Z,4.10
2019-02-25T07:29:58.554Z,4.00
2019-02-25T07:32:26.734Z,4.10
2019-02-25T07:34:54.927Z,4.10
2019-02-25T07:37:39.775Z,4.10
2019-02-25T07:40:12.151Z,4.20
2019-02-25T07:42:57.292Z,4.20
2019-02-25T07:45:31.431Z,4.20
2019-02-25T07:48:05.705Z,4.30
2019-02-25T07:50:46.903Z,4.30
2019-02-25T07:53:13.331Z,4.30
2019-02-25T07:56:02.162Z,4.40
2019-02-25T07:58:26.961Z,4.40
2019-02-25T08:00:55.161Z,4.50
2019-02-25T08:03:29.379Z,4.50
2019-02-25T08:06:11.902Z,4.50
2019-02-25T08:08:39.946Z,4.60
2019-02-25T08:11:14.971Z,4.60
2019-02-25T08:13:56.405Z,4.70
2019-02-25T08:16:33.348Z,4.80
2019-02-25T08:19:01.593Z,4.80
2019-02-25T08:21:39.420Z,4.80
2019-02-25T08:24:10.338Z,4.90
2019-02-25T08:26:47.510Z,5.00
2019-02-25T08:29:21.723Z,5.00
2019-02-25T08:31:49.973Z,5.10
2019-02-25T08:34:24.150Z,5.10
2019-02-25T08:37:04.964Z,5.10
2019-02-25T08:39:33.240Z,5.10
2019-02-25T08:42:04.487Z,5.10
2019-02-25T08:44:38.500Z,5.10
2019-02-25T08:47:10.107Z,5.10
2019-02-25T08:49:38.810Z,5.20
2019-02-25T08:52:05.850Z,5.20
2019-02-25T08:54:32.311Z,5.20
2019-02-25T08:56:58.677Z,5.10
2019-02-25T08:59:25.457Z,5.20
2019-02-25T09:01:51.931Z,5.20
2019-02-25T09:04:18.180Z,5.20
2019-02-25T09:06:48.782Z,5.30
2019-02-25T09:09:15.186Z,5.30
2019-02-25T09:11:41.423Z,5.40
2019-02-25T09:14:07.751Z,5.50
2019-02-25T09:16:34.023Z,5.50
2019-02-25T09:19:01.547Z,5.50
2019-02-25T09:21:31.885Z,5.50
2019-02-25T09:23:56.032Z,5.50
2019-02-25T09:26:22.307Z,5.60
2019-02-25T09:28:49.120Z,5.60
2019-02-25T09:31:15.435Z,5.60
2019-02-25T09:33:41.683Z,5.70
2019-02-25T09:36:07.934Z,5.70
2019-02-25T09:38:34.239Z,5.80
2019-02-25T09:41:00.512Z,5.80
2019-02-25T09:43:27.212Z,5.80
2019-02-25T09:45:53.849Z,5.90
2019-02-25T09:48:20.158Z,5.90
2019-02-25T09:50:46.869Z,6.00
2019-02-25T09:53:13.429Z,6.00
2019-02-25T09:55:39.753Z,6.00
2019-02-25T09:58:06.064Z,6.10
2019-02-25T10:00:32.903Z,6.20
2019-02-25T10:02:59.383Z,6.20
2019-02-25T10:05:25.875Z,6.30
2019-02-25T10:07:52.324Z,6.30
2019-02-25T10:10:18.781Z,6.30
2019-02-25T10:12:45.506Z,6.30
2019-02-25T10:15:21.256Z,6.40
2019-02-25T10:17:47.784Z,6.40
2019-02-25T10:20:14.133Z,6.50
2019-02-25T10:22:40.485Z,6.50
2019-02-25T10:25:09.256Z,6.50
2019-02-25T10:27:35.513Z,6.60
2019-02-25T10:30:04.274Z,6.70
2019-02-25T10:32:30.514Z,6.70
2019-02-25T10:34:56.759Z,6.70
2019-02-25T10:37:23.579Z,6.80
2019-02-25T10:39:51.480Z,6.80
2019-02-25T10:42:18.158Z,7.00
2019-02-25T10:44:46.561Z,7.00
2019-02-25T10:47:13.612Z,7.00
2019-02-25T10:49:40.840Z,7.00
2019-02-25T10:52:08.757Z,7.00
2019-02-25T10:54:35.186Z,7.10
2019-02-25T10:57:01.420Z,7.10
2019-02-25T10:59:27.617Z,7.10
2019-02-25T11:01:53.850Z,7.30
2019-02-25T11:04:21.618Z,7.30
2019-02-25T11:06:48.095Z,7.40
2019-02-25T11:09:22.264Z,7.40
2019-02-25T11:11:50.520Z,7.50
2019-02-25T11:14:16.813Z,7.70
2019-02-25T11:16:43.990Z,7.70
2019-02-25T11:19:11.482Z,7.70
2019-02-25T11:21:39.803Z,7.80
2019-02-25T11:24:06.375Z,7.80
2019-02-25T11:26:35.182Z,7.90
2019-02-25T11:29:01.240Z,7.90
2019-02-25T11:31:29.174Z,7.90
2019-02-25T11:33:56.428Z,8.00
2019-02-25T11:36:23.559Z,8.00
2019-02-25T11:38:49.812Z,8.10
2019-02-25T11:41:16.043Z,8.10
2019-02-25T11:43:44.108Z,8.10
2019-02-25T11:46:10.501Z,8.30
2019-02-25T11:48:36.759Z,8.20
2019-02-25T11:51:03.283Z,8.30
2019-02-25T11:53:29.576Z,8.40
2019-02-25T11:56:01.390Z,8.50
2019-02-25T11:58:27.642Z,8.60
2019-02-25T12:00:54.236Z,8.60
2019-02-25T12:03:22.267Z,8.70
2019-02-25T12:05:48.955Z,8.70
2019-02-25T12:08:15.686Z,8.70
2019-02-25T12:10:41.954Z,8.80
2019-02-25T12:13:08.195Z,8.80
2019-02-25T12:15:34.526Z,8.90
2019-02-25T12:18:00.714Z,8.90
2019-02-25T12:20:26.963Z,8.90
2019-02-25T12:22:53.487Z,8.90
2019-02-25T12:25:22.038Z,8.90
2019-02-25T12:27:48.278Z,9.00
2019-02-25T12:30:21.966Z,9.00
2019-02-25T12:32:48.191Z,9.40
2019-02-25T12:35:14.528Z,9.30
2019-02-25T12:37:40.858Z,9.30
2019-02-25T12:40:10.695Z,9.30
2019-02-25T12:42:37.030Z,9.40
2019-02-25T12:45:06.426Z,9.40
2019-02-25T12:47:33.086Z,9.40
2019-02-25T12:49:59.369Z,9.50
2019-02-25T12:52:25.725Z,9.50
2019-02-25T12:54:52.676Z,9.50
2019-02-25T12:57:18.933Z,9.50
2019-02-25T12:59:45.201Z,9.50
2019-02-25T13:02:11.633Z,9.70
2019-02-25T13:04:37.963Z,9.70
2019-02-25T13:07:04.202Z,9.70
2019-02-25T13:09:30.521Z,9.80
2019-02-25T13:12:02.796Z,9.90
2019-02-25T13:14:29.108Z,9.90
2019-02-25T13:16:55.452Z,10.00
2019-02-25T13:19:21.687Z,10.00
2019-02-25T13:21:47.984Z,10.00
2019-02-25T13:24:14.794Z,10.00
2019-02-25T13:26:41.366Z,10.00
2019-02-25T13:29:07.982Z,10.00
2019-02-25T13:31:34.267Z,10.10
2019-02-25T13:34:00.510Z,10.00
2019-02-25T13:36:27.008Z,10.20
2019-02-25T13:38:53.295Z,10.20
2019-02-25T13:41:19.613Z,10.40
2019-02-25T13:43:46.057Z,10.30
2019-02-25T13:46:12.464Z,10.30
2019-02-25T13:48:39.136Z,10.30
2019-02-25T13:51:05.574Z,10.50
2019-02-25T13:53:32.283Z,10.50
2019-02-25T13:55:59.048Z,10.50
2019-02-25T13:58:25.403Z,10.50
2019-02-25T14:00:52.300Z,10.60
2019-02-25T14:03:18.915Z,10.60
2019-02-25T14:05:45.605Z,10.60
2019-02-25T14:08:12.035Z,10.60
2019-02-25T14:10:38.572Z,10.70
2019-02-25T14:13:05.547Z,10.70
2019-02-25T14:15:32.191Z,10.70
2019-02-25T14:17:59.172Z,10.70
2019-02-25T14:20:25.960Z,10.80
2019-02-25T14:22:52.549Z,10.80
2019-02-25T14:25:26.075Z,10.70
2019-02-25T14:27:54.750Z,10.70
2019-02-25T14:30:24.116Z,10.80
2019-02-25T14:32:53.503Z,10.80
2019-02-25T14:35:21.938Z,10.80
2019-02-25T14:37:48.686Z,10.80
2019-02-25T14:40:19.178Z,10.90
2019-02-25T14:42:48.818Z,10.90
2019-02-25T14:45:19.670Z,10.90
2019-02-25T14:47:44.967Z,10.90
2019-02-25T14:50:18.249Z,10.80
2019-02-25T14:52:45.367Z,10.80
2019-02-25T14:55:13.556Z,10.80
2019-02-25T14:57:43.240Z,10.90
2019-02-25T15:00:17.465Z,11.00
2019-02-25T15:02:45.903Z,11.00
2019-02-25T15:05:13.012Z,10.90
2019-02-25T15:07:40.594Z,10.90
2019-02-25T15:10:11.443Z,10.90
2019-02-25T15:12:39.920Z,10.90
2019-02-25T15:15:11.680Z,10.90
2019-02-25T15:17:38.088Z,10.90
2019-02-25T15:20:07.928Z,10.90
2019-02-25T15:22:36.270Z,10.90
2019-02-25T15:25:05.365Z,10.90
2019-02-25T15:27:32.899Z,10.90
2019-02-25T15:30:10.287Z,10.90
2019-02-25T15:32:37.241Z,10.90
2019-02-25T15:35:07.916Z,10.90
2019-02-25T15:37:34.281Z,10.90
2019-02-25T15:40:01.209Z,10.90
2019-02-25T15:42:28.013Z,10.90
2019-02-25T15:44:57.581Z,10.90
2019-02-25T15:47:24.258Z,10.90
2019-02-25T15:49:50.481Z,10.90
2019-02-25T15:52:18.841Z,10.90
2019-02-25T15:54:45.240Z,10.80
2019-02-25T15:57:11.777Z,10.80
2019-02-25T15:59:38.415Z,10.80
2019-02-25T16:02:05.593Z,10.80
2019-02-25T16:04:33.956Z,10.70
2019-02-25T16:07:04.402Z,10.70
2019-02-25T16:09:29.815Z,10.80
2019-02-25T16:11:58.960Z,10.80
2019-02-25T16:14:27.716Z,10.70
2019-02-25T16:16:54.299Z,10.70
2019-02-25T16:19:21.560Z,10.70
2019-02-25T16:21:48.615Z,10.60
2019-02-25T16:24:16.986Z,10.60
2019-02-25T16:26:43.827Z,10.50
2019-02-25T16:29:11.790Z,10.50
2019-02-25T16:31:38.316Z,10.50
2019-02-25T16:34:05.299Z,10.40
2019-02-25T16:36:32.810Z,10.40
2019-02-25T16:39:00.387Z,10.40
2019-02-25T16:41:31.750Z,10.30
2019-02-25T16:43:57.398Z,10.30
2019-02-25T16:46:24.652Z,10.30
2019-02-25T16:48:52.832Z,10.30
2019-02-25T16:51:20.486Z,10.30
2019-02-25T16:53:50.518Z,10.20
2019-02-25T16:56:15.567Z,10.20
2019-02-25T16:58:42.381Z,10.10
2019-02-25T17:01:10.920Z,10.10
2019-02-25T17:03:39.331Z,10.10
2019-02-25T17:06:06.788Z,10.10
2019-02-25T17:08:34.781Z,10.20
2019-02-25T17:11:02.373Z,10.20
2019-02-25T17:13:29.959Z,10.20
2019-02-25T17:15:56.974Z,10.10
2019-02-25T17:18:23.617Z,10.10
2019-02-25T17:20:50.495Z,10.10
2019-02-25T17:23:17.266Z,10.00
2019-02-25T17:25:43.817Z,10.00
2019-02-25T17:28:14.514Z,9.90
2019-02-25T17:30:40.631Z,9.90
2019-02-25T17:33:10.084Z,9.90
2019-02-25T17:35:36.451Z,9.80
2019-02-25T17:38:04.838Z,9.80
2019-02-25T17:40:31.287Z,9.70
2019-02-25T17:42:58.243Z,9.70
2019-02-25T17:45:29.068Z,9.70
2019-02-25T17:47:58.203Z,9.70
2019-02-25T17:50:23.936Z,9.70
2019-02-25T17:52:50.880Z,9.70
2019-02-25T17:55:24.803Z,9.60
2019-02-25T17:57:54.255Z,9.70
2019-02-25T18:00:29.818Z,9.70
2019-02-25T18:02:57.629Z,9.70
2019-02-25T18:05:25.313Z,9.70
2019-02-25T18:07:51.866Z,9.70
2019-02-25T18:10:18.514Z,9.60
2019-02-25T18:12:45.114Z,9.60
2019-02-25T18:15:21.894Z,9.50
2019-02-25T18:17:51.476Z,9.50
2019-02-25T18:20:18.913Z,9.50
2019-02-25T18:22:45.565Z,9.50
2019-02-25T18:25:32.032Z,9.50
2019-02-25T18:27:58.769Z,9.50
2019-02-25T18:30:28.050Z,9.50
2019-02-25T18:32:55.203Z,9.50
2019-02-25T18:35:23.304Z,9.40
2019-02-25T18:37:49.680Z,9.40
2019-02-25T18:40:19.021Z,9.40
2019-02-25T18:42:45.880Z,9.40
2019-02-25T18:45:16.019Z,9.30
2019-02-25T18:47:44.572Z,9.30
2019-02-25T18:50:17.659Z,9.20
2019-02-25T18:52:46.178Z,9.20
2019-02-25T18:55:15.272Z,9.20
2019-02-25T18:57:43.810Z,9.20
2019-02-25T19:00:17.473Z,9.10
2019-02-25T19:02:44.622Z,9.10
2019-02-25T19:05:13.850Z,9.00
2019-02-25T19:07:39.692Z,9.00
2019-02-25T19:10:06.241Z,9.00
2019-02-25T19:12:35.680Z,8.90
2019-02-25T19:15:04.918Z,8.90
2019-02-25T19:17:32.022Z,8.90
2019-02-25T19:19:58.454Z,8.90
2019-02-25T19:22:25.747Z,8.90
2019-02-25T19:24:52.592Z,8.80
2019-02-25T19:27:18.967Z,8.90
2019-02-25T19:29:47.363Z,8.90
2019-02-25T19:32:14.845Z,8.80
2019-02-25T19:34:41.615Z,8.80
2019-02-25T19:37:09.654Z,8.70
2019-02-25T19:39:39.133Z,8.80
2019-02-25T19:42:05.653Z,8.80
2019-02-25T19:44:33.799Z,8.70
2019-02-25T19:47:00.867Z,8.70
2019-02-25T19:49:27.772Z,8.60
2019-02-25T19:51:54.645Z,8.60
2019-02-25T19:54:21.042Z,8.60
2019-02-25T19:56:48.424Z,8.50
2019-02-25T19:59:15.875Z,8.50
2019-02-25T20:01:42.191Z,8.50
2019-02-25T20:04:09.219Z,8.40
2019-02-25T20:06:36.681Z,8.40
2019-02-25T20:09:07.490Z,8.40
2019-02-25T20:11:33.818Z,8.30
2019-02-25T20:14:01.583Z,8.30
2019-02-25T20:16:30.410Z,8.20
2019-02-25T20:19:00.173Z,8.20
2019-02-25T20:21:28.784Z,8.20
2019-02-25T20:23:55.998Z,8.20
2019-02-25T20:26:24.540Z,8.10
2019-02-25T20:28:50.736Z,8.10
2019-02-25T20:31:17.320Z,8.00
2019-02-25T20:33:43.990Z,8.00
2019-02-25T20:36:10.413Z,7.90
2019-02-25T20:38:37.299Z,7.90
2019-02-25T20:41:05.262Z,7.80
2019-02-25T20:43:32.486Z,7.80
2019-02-25T20:46:01.084Z,7.80
2019-02-25T20:48:27.613Z,7.80
2019-02-25T20:50:53.983Z,7.80
2019-02-25T20:53:20.619Z,7.80
2019-02-25T20:55:54.511Z,7.70
2019-02-25T20:58:21.408Z,7.70
2019-02-25T21:00:50.812Z,7.70
2019-02-25T21:03:18.924Z,7.60
2019-02-25T21:05:45.587Z,7.60
2019-02-25T21:08:14.613Z,7.50
2019-02-25T21:10:41.720Z,7.60
2019-02-25T21:13:08.032Z,7.60
2019-02-25T21:15:36.397Z,7.60
2019-02-25T21:18:07.341Z,7.60
2019-02-25T21:20:31.844Z,7.60
2019-02-25T21:23:02.941Z,7.60
2019-02-25T21:25:26.989Z,7.60
2019-02-25T21:27:57.200Z,7.50
2019-02-25T21:30:23.334Z,7.40
2019-02-25T21:32:51.753Z,7.40
2019-02-25T21:35:23.453Z,7.40
2019-02-25T21:37:50.017Z,7.40
2019-02-25T21:40:20.109Z,7.40
2019-02-25T21:42:49.267Z,7.40
2019-02-25T21:45:18.340Z,7.30
2019-02-25T21:47:47.619Z,7.30
2019-02-25T21:50:15.754Z,7.30
2019-02-25T21:52:43.554Z,7.20
2019-02-25T21:55:11.743Z,7.20
2019-02-25T21:57:38.313Z,7.20
2019-02-25T22:00:19.430Z,7.20
2019-02-25T22:02:50.327Z,7.10
2019-02-25T22:05:18.946Z,7.10
2019-02-25T22:07:47.556Z,7.10
2019-02-25T22:10:15.515Z,7.10
2019-02-25T22:12:44.266Z,7.00
2019-02-25T22:15:15.214Z,7.10
2019-02-25T22:17:43.376Z,7.00
2019-02-25T22:20:14.367Z,6.90
2019-02-25T22:22:43.161Z,6.90
2019-02-25T22:25:14.046Z,6.90
2019-02-25T22:27:41.759Z,6.90
2019-02-25T22:30:12.506Z,6.80
2019-02-25T22:32:40.672Z,6.80
2019-02-25T22:35:12.443Z,6.80
2019-02-25T22:37:37.671Z,6.80
2019-02-25T22:40:10.221Z,6.80
2019-02-25T22:42:38.416Z,6.80
2019-02-25T22:45:09.868Z,6.70
2019-02-25T22:47:36.509Z,6.70
2019-02-25T22:50:08.993Z,6.70
2019-02-25T22:52:37.354Z,6.70
2019-02-25T22:55:07.931Z,6.70
2019-02-25T22:57:32.394Z,6.70
2019-02-25T22:59:58.714Z,6.60
2019-02-25T23:02:27.999Z,6.60
2019-02-25T23:04:54.182Z,6.50
2019-02-25T23:07:22.757Z,6.50
2019-02-25T23:09:52.124Z,6.50
2019-02-25T23:12:19.736Z,6.50
2019-02-25T23:14:47.265Z,6.40
2019-02-25T23:17:15.227Z,6.40
2019-02-25T23:19:43.096Z,6.40
2019-02-25T23:22:12.535Z,6.30
2019-02-25T23:24:39.852Z,6.30
2019-02-25T23:27:07.387Z,6.20
2019-02-25T23:29:33.915Z,6.30
2019-02-25T23:32:09.315Z,6.20
2019-02-25T23:34:35.923Z,6.30
2019-02-25T23:37:06.058Z,6.30
2019-02-25T23:39:34.486Z,6.30
2019-02-25T23:42:00.624Z,6.20
2019-02-25T23:44:28.858Z,6.20
2019-02-25T23:46:57.910Z,6.20
2019-02-25T23:49:27.239Z,6.20
2019-02-25T23:51:51.802Z,6.20
2019-02-25T23:54:18.465Z,6.20
2019-02-25T23:56:48.014Z,6.20
2019-02-25T23:59:16.642Z,6.20
